Nearby METAR Reports

 

KHIF - Hill Afb/Ogden, Utah, USA
Distance from station: ENE 6mi, 9km
Updated: Wed, 04-Aug-2021 5:58pm MDT
Clear
Clear
 Wind from N
Wind: N 8 mph , 13 km/h
Temperature: 90°F , 32°C
Dew Point: 46°F , 8°C
Humidity: 22%
Barometer: 30.15 inHg , 1021 hPa
Clouds: Clear
Visibility: 10 miles , 16 km
2021/08/04 23:58 KHIF 042358Z AUTO 35007KT 10SM CLR 32/08 A3015 RMK AO2 SLP147 T03190075 10325 20283 57015
KOGD - Ogden, Utah, USA
Distance from station: NNE 9mi, 14km
Updated: Wed, 04-Aug-2021 5:53pm MDT
Clear
Clear
 Wind from NW
Wind: NW 7 mph , 11 km/h
Temperature: 91°F , 33°C
Dew Point: 45°F , 7°C
Humidity: 20%
Barometer: 30.13 inHg , 1020.3 hPa
Clouds: Clear
Visibility: 9 miles , 14 km
2021/08/04 23:53 KOGD 042353Z 32006KT 9SM CLR 33/07 A3013 RMK AO2 SLP136 T03330067 10350 20300 56016
 
KSLC - Salt Lake City, Utah, USA
Distance from station: SSE 21mi, 34km
Updated: Wed, 04-Aug-2021 5:54pm MDT
Few Clouds
Few Clouds
 Wind from N
Wind: N 8 mph , 13 km/h
Temperature: 93°F , 34°C
Dew Point: 45°F , 7°C
Humidity: 19%
Barometer: 30.10 inHg , 1019.3 hPa
Clouds: Few Clouds
Visibility: 10 miles , 16 km
Cloud details: Few Clouds 10000 ft
2021/08/04 23:54 KSLC 042354Z 36007KT 10SM FEW100 34/07 A3010 RMK AO2 SLP132 HZ ALQDS FU ALFT T03390067 10344 20289 56018
KLGU - Logan, Utah, USA
Distance from station: NNE 50mi, 80km
Updated: Wed, 04-Aug-2021 5:51pm MDT
Clear
Clear
 Wind from calm
Wind: Calm
Temperature: 90°F , 32°C
Dew Point: 39°F , 4°C
Humidity: 17%
Barometer: 30.13 inHg , 1020.3 hPa
Clouds: Clear
Visibility: 10 miles , 16 km
2021/08/04 23:51 KLGU 042351Z AUTO 00000KT 10SM CLR 32/04 A3013 RMK AO2 SLP149 T03220039 10322 20250 56016
 
K36U - Heber/Russ Mcdon, Utah, USA
Distance from station: SE 53mi, 85km
Updated: Wed, 11-Oct-2017 6:50pm MDT
NOT Current
Clear
Clear
 Wind from SSW
Wind: SSW 10 mph , 17 km/h, Gust: 18 mph , 30 km/h
Temperature: 63°F , 17°C
Dew Point: 16°F , -9°C
Humidity: 16%
Barometer: 29.87 inHg , 1011.5 hPa
Clouds: Clear
Visibility: 10 miles , 16 km
2017/10/12 00:50 K36U 120050Z AUTO 21009G16KT 10SM CLR 17/M09 A2987 RMK AO2
KEVW - Evanston, Wyoming, USA
Distance from station: ENE 55mi, 89km
Updated: Wed, 04-Aug-2021 5:53pm MDT
Clear
Clear
 Wind from NE
Wind: NE 9 mph , 15 km/h
Temperature: 81°F , 27°C
Dew Point: 32°F , 0°C
Humidity: 17%
Barometer: 30.35 inHg , 1027.8 hPa
Clouds: Clear
Visibility: 10 miles , 16 km
2021/08/04 23:53 KEVW 042353Z AUTO 04008KT 10SM CLR 27/00 A3035 RMK AO2 SLP183 T02670000 10289 20233 56012
 
KPVU - Provo Muni, Utah, USA
Distance from station: SSE 62mi, 100km
Updated: Wed, 04-Aug-2021 5:56pm MDT
Few Clouds
Few Clouds
 Wind from varies
Wind: varies 6 mph , 9 km/h
Temperature: 90°F , 32°C
Dew Point: 54°F , 12°C
Humidity: 29%
Barometer: 30.14 inHg , 1020.7 hPa
Clouds: Few Clouds
Visibility: 10 miles , 16 km
Cloud details: Few Clouds 9000 ft
2021/08/04 23:56 KPVU 042356Z VRB05KT 10SM FEW090 32/12 A3014 RMK AO2 SLP148 T03170117 10317 20261 56019
KDPG - Dugway Prvg Grou, Utah, USA
Distance from station: SW 75mi, 121km
Updated: Wed, 04-Aug-2021 4:55pm MDT
NOT Current
Partly cloudy
Partly cloudy
 Wind from SSE
Wind: SSE 6 mph , 9 km/h
Temperature: 95°F , 35°C
Dew Point: 39°F , 4°C
Humidity: 14%
Barometer: 30.10 inHg , 1019.3 hPa
Clouds: Partly cloudy
Visibility: 13 miles , 21 km
Cloud details: Few Clouds 11000 ft
Partly cloudy 25000 ft
2021/08/04 22:55 KDPG 042255Z 15005KT 13SM FEW110 SCT250 35/04 A3010 RMK FU ALQDS SLP138 T03520038 LAST
 
KENV - Wendover (aut), Utah, USA
Distance from station: WSW 105mi, 169km
Updated: Wed, 04-Aug-2021 5:56pm MDT
Clear
Clear
 Wind from E
Wind: E 7 mph , 11 km/h
Temperature: 93°F , 34°C
Dew Point: 37°F , 3°C
Humidity: 14%
Barometer: 30.09 inHg , 1019 hPa
Clouds: Clear
Visibility: 10 miles , 16 km
2021/08/04 23:56 KENV 042356Z AUTO 10006KT 10SM CLR 34/03 A3009 RMK AO2 SLP142 T03390033 10350 20300 56020
KPUC - Price, Utah, USA
Distance from station: SE 123mi, 197km
Updated: Wed, 04-Aug-2021 5:53pm MDT
Partly cloudy
Partly cloudy
 Wind from varies
Wind: varies 3 mph , 6 km/h
Temperature: 88°F , 31°C
Dew Point: 39°F , 4°C
Humidity: 18%
Barometer: 30.21 inHg , 1023 hPa
Clouds: Partly cloudy
Visibility: 10 miles , 16 km
Cloud details: Partly cloudy 12000 ft
2021/08/04 23:53 KPUC 042353Z AUTO VRB03KT 10SM SCT120 31/04 A3021 RMK AO2 SLP132 T03110039 10322 20272 56016
 
KPIH - Pocatello, Idaho, USA
Distance from station: NNW 130mi, 208km
Updated: Wed, 04-Aug-2021 5:53pm MDT
Few Clouds
Few Clouds
 Wind from W
Wind: W 5 mph , 7 km/h
Temperature: 93°F , 34°C
Dew Point: 45°F , 7°C
Humidity: 19%
Barometer: 30.11 inHg , 1019.6 hPa
Clouds: Few Clouds
Visibility: 10 miles , 16 km
Cloud details: Few Clouds 11000 ft
2021/08/04 23:53 KPIH 042353Z 26004KT 10SM FEW110 34/07 A3011 RMK AO2 SLP146 T03390067 10344 20300 56019
KBYI - Burley, Idaho, USA
Distance from station: NW 134mi, 216km
Updated: Wed, 04-Aug-2021 5:53pm MDT
Clear
Clear
 Wind from SE
Wind: SE 6 mph , 9 km/h
Temperature: 93°F , 34°C
Dew Point: 39°F , 4°C
Humidity: 15%
Barometer: 30.06 inHg , 1017.9 hPa
Clouds: Clear
Visibility: 10 miles , 16 km
2021/08/04 23:53 KBYI 042353Z AUTO 14005KT 10SM CLR 34/04 A3006 RMK AO2 SLP127 T03440039 10361 20278 56019
 
KVEL - Vernal, Utah, USA
Distance from station: ESE 140mi, 226km
Updated: Wed, 04-Aug-2021 5:53pm MDT
Clear
Clear
 Wind from SW
Wind: SW 6 mph , 9 km/h
Temperature: 88°F , 31°C
Dew Point: 45°F , 7°C
Humidity: 22%
Barometer: 30.20 inHg , 1022.7 hPa
Clouds: Clear
Visibility: 10 miles , 16 km
2021/08/04 23:53 KVEL 042353Z AUTO 23005KT 10SM CLR 31/07 A3020 RMK AO2 SLP156 T03060067 10311 20267 56016
KBPI - Big Piney, Wyoming, USA
Distance from station: NE 145mi, 234km
Updated: Wed, 04-Aug-2021 5:53pm MDT
Clear
Clear
 Wind from NW
Wind: NW 13 mph , 20 km/h, Gust: 30 mph , 48 km/h
Temperature: 82°F , 28°C
Dew Point: 30°F , -1°C
Humidity: 15%
Barometer: 30.33 inHg , 1027.1 hPa
Clouds: Clear
Visibility: 10 miles , 16 km
2021/08/04 23:53 KBPI 042353Z AUTO 31011G26KT 10SM CLR 28/M01 A3033 RMK AO2 PK WND 32026/2350 SLP175 T02831011 10289 20233 56011